createdAt,value
2023-04-18T00:00:18.514Z,101195.69
2023-04-18T00:02:46.120Z,101194.28
2023-04-18T00:05:13.830Z,101193.00
2023-04-18T00:07:41.484Z,101192.59
2023-04-18T00:10:09.009Z,101201.88
2023-04-18T00:12:36.786Z,101196.81
2023-04-18T00:15:05.974Z,101196.81
2023-04-18T00:17:33.526Z,101193.78
2023-04-18T00:20:06.884Z,101196.59
2023-04-18T00:22:35.106Z,101192.72
2023-04-18T00:25:02.590Z,101189.31
2023-04-18T00:27:30.363Z,101187.56
2023-04-18T00:29:58.008Z,101186.09
2023-04-18T00:32:25.592Z,101184.88
2023-04-18T00:34:53.223Z,101181.41
2023-04-18T00:37:20.697Z,101175.16
2023-04-18T00:39:49.673Z,101177.00
2023-04-18T00:42:17.121Z,101173.84
2023-04-18T00:44:46.389Z,101171.56
2023-04-18T00:47:16.404Z,101169.00
2023-04-18T00:49:48.157Z,101170.13
2023-04-18T00:52:18.488Z,101163.56
2023-04-18T00:54:46.808Z,101157.25
2023-04-18T00:57:14.665Z,101155.47
2023-04-18T00:59:42.629Z,101154.78
2023-04-18T01:02:10.519Z,101153.94
2023-04-18T01:04:38.725Z,101153.94
2023-04-18T01:07:09.871Z,101155.56
2023-04-18T01:09:37.568Z,101157.97
2023-04-18T01:12:05.494Z,101158.81
2023-04-18T01:14:33.068Z,101158.13
2023-04-18T01:17:01.564Z,101157.91
2023-04-18T01:19:29.256Z,101155.28
2023-04-18T01:21:57.126Z,101160.41
2023-04-18T01:24:26.781Z,101152.56
2023-04-18T01:26:54.194Z,101155.56
2023-04-18T01:29:21.705Z,101159.13
2023-04-18T01:31:50.497Z,101161.00
2023-04-18T01:34:18.866Z,101166.38
2023-04-18T01:36:46.785Z,101155.63
2023-04-18T01:39:14.791Z,101159.63
2023-04-18T01:41:42.653Z,101150.78
2023-04-18T01:44:10.593Z,101159.38
2023-04-18T01:46:38.900Z,101151.47
2023-04-18T01:49:06.422Z,101154.34
2023-04-18T01:51:35.591Z,101150.94
2023-04-18T01:54:03.080Z,101137.06
2023-04-18T01:56:31.997Z,101142.47
2023-04-18T01:59:00.436Z,101140.63
2023-04-18T02:01:27.986Z,101141.50
2023-04-18T02:03:55.674Z,101139.91
2023-04-18T02:06:23.349Z,101132.16
2023-04-18T02:08:50.805Z,101134.53
2023-04-18T02:11:18.423Z,101136.25
2023-04-18T02:13:45.970Z,101141.75
2023-04-18T02:16:13.829Z,101126.97
2023-04-18T02:18:44.176Z,101128.03
2023-04-18T02:21:11.968Z,101131.53
2023-04-18T02:23:39.491Z,101130.53
2023-04-18T02:26:06.958Z,101129.53
2023-04-18T02:28:39.067Z,101133.91
2023-04-18T02:31:07.419Z,101133.72
2023-04-18T02:33:36.145Z,101127.25
2023-04-18T02:36:03.894Z,101130.09
2023-04-18T02:38:33.254Z,101130.47
2023-04-18T02:41:00.876Z,101123.63
2023-04-18T02:43:28.393Z,101126.38
2023-04-18T02:45:56.197Z,101124.50
2023-04-18T02:48:24.088Z,101125.19
2023-04-18T02:50:51.916Z,101121.06
2023-04-18T02:53:19.468Z,101117.59
2023-04-18T02:55:56.039Z,101122.19
2023-04-18T02:58:30.412Z,101118.78
2023-04-18T03:01:30.644Z,101114.19
2023-04-18T03:04:10.696Z,101117.16
2023-04-18T03:06:42.788Z,101124.00
2023-04-18T03:09:10.545Z,101126.72
2023-04-18T03:11:44.339Z,101135.22
2023-04-18T03:14:12.224Z,101135.31
2023-04-18T03:16:51.776Z,101128.38
2023-04-18T03:19:24.125Z,101122.50
2023-04-18T03:21:53.710Z,101121.56
2023-04-18T03:24:21.210Z,101129.56
2023-04-18T03:26:51.980Z,101118.41
2023-04-18T03:29:22.677Z,101122.22
2023-04-18T03:31:50.279Z,101125.50
2023-04-18T03:34:17.825Z,101121.91
2023-04-18T03:36:47.281Z,101132.50
2023-04-18T03:39:15.812Z,101140.41
2023-04-18T03:41:43.427Z,101133.94
2023-04-18T03:44:11.563Z,101133.00
2023-04-18T03:46:41.624Z,101139.63
2023-04-18T03:49:10.785Z,101134.75
2023-04-18T03:51:45.311Z,101125.13
2023-04-18T03:54:13.036Z,101132.97
2023-04-18T03:56:41.486Z,101133.03
2023-04-18T03:59:10.534Z,101133.94
2023-04-18T04:01:38.251Z,101130.56
2023-04-18T04:04:06.073Z,101146.38
2023-04-18T04:06:33.970Z,101145.34
2023-04-18T04:09:01.864Z,101142.66
2023-04-18T04:11:30.183Z,101139.78
2023-04-18T04:13:58.167Z,101151.84
2023-04-18T04:16:32.066Z,101143.34
2023-04-18T04:19:00.140Z,101144.66
2023-04-18T04:21:36.570Z,101139.63
2023-04-18T04:24:07.017Z,101135.09
2023-04-18T04:26:43.106Z,101135.94
2023-04-18T04:29:17.948Z,101131.72
2023-04-18T04:31:47.637Z,101136.91
2023-04-18T04:34:21.920Z,101131.00
2023-04-18T04:36:49.527Z,101140.69
2023-04-18T04:39:17.548Z,101142.34
2023-04-18T04:41:57.947Z,101139.63
2023-04-18T04:44:31.438Z,101133.38
2023-04-18T04:46:59.820Z,101140.13
2023-04-18T04:49:33.620Z,101145.84
2023-04-18T04:52:02.791Z,101154.66
2023-04-18T04:54:30.747Z,101156.88
2023-04-18T04:56:58.270Z,101144.34
2023-04-18T04:59:26.563Z,101146.53
2023-04-18T05:01:54.549Z,101154.66
2023-04-18T05:04:22.126Z,101152.44
2023-04-18T05:06:49.774Z,101159.25
2023-04-18T05:09:17.215Z,101158.72
2023-04-18T05:11:44.803Z,101156.59
2023-04-18T05:14:12.726Z,101157.94
2023-04-18T05:16:40.596Z,101160.84
2023-04-18T05:19:08.052Z,101155.63
2023-04-18T05:21:35.969Z,101159.22
2023-04-18T05:24:03.641Z,101154.69
2023-04-18T05:26:31.784Z,101149.25
2023-04-18T05:28:59.253Z,101148.13
2023-04-18T05:31:26.847Z,101150.03
2023-04-18T05:33:54.440Z,101145.75
2023-04-18T05:36:23.624Z,101143.28
2023-04-18T05:38:51.725Z,101142.41
2023-04-18T05:41:19.326Z,101134.56
2023-04-18T05:43:57.831Z,101130.28
2023-04-18T05:46:32.688Z,101114.69
2023-04-18T05:49:00.211Z,101112.41
2023-04-18T05:51:28.669Z,101114.84
2023-04-18T05:53:56.271Z,101115.28
2023-04-18T05:56:23.735Z,101114.56
2023-04-18T05:58:51.444Z,101112.00
2023-04-18T06:01:18.930Z,101108.41
2023-04-18T06:03:46.775Z,101109.34
2023-04-18T06:06:14.619Z,101114.97
2023-04-18T06:08:42.313Z,101103.81
2023-04-18T06:11:09.838Z,101104.44
2023-04-18T06:13:37.636Z,101099.81
2023-04-18T06:16:05.982Z,101099.91
2023-04-18T06:18:34.133Z,101098.31
2023-04-18T06:21:01.590Z,101095.78
2023-04-18T06:23:29.219Z,101094.63
2023-04-18T06:25:57.701Z,101090.78
2023-04-18T06:28:27.095Z,101085.03
2023-04-18T06:30:54.546Z,101082.78
2023-04-18T06:33:22.015Z,101083.78
2023-04-18T06:35:49.521Z,101085.03
2023-04-18T06:38:17.189Z,101091.84
2023-04-18T06:40:44.683Z,101085.97
2023-04-18T06:43:12.291Z,101091.84
2023-04-18T06:45:40.580Z,101088.88
2023-04-18T06:48:10.747Z,101086.13
2023-04-18T06:50:38.639Z,101087.94
2023-04-18T06:53:06.153Z,101092.56
2023-04-18T06:55:33.711Z,101089.16
2023-04-18T06:58:01.281Z,101088.44
2023-04-18T07:00:29.426Z,101087.38
2023-04-18T07:02:57.100Z,101082.06
2023-04-18T07:05:27.201Z,101074.63
2023-04-18T07:07:57.109Z,101074.75
2023-04-18T07:10:24.785Z,101073.69
2023-04-18T07:12:52.276Z,101081.22
2023-04-18T07:15:19.680Z,101070.44
2023-04-18T07:17:47.259Z,101078.13
2023-04-18T07:20:14.840Z,101066.00
2023-04-18T07:22:42.544Z,101077.47
2023-04-18T07:25:10.239Z,101081.06
2023-04-18T07:27:37.892Z,101072.34
2023-04-18T07:30:06.327Z,101067.91
2023-04-18T07:32:34.713Z,101065.69
2023-04-18T07:35:03.460Z,101066.47
2023-04-18T07:37:31.571Z,101054.03
2023-04-18T07:39:59.288Z,101063.78
2023-04-18T07:42:26.861Z,101071.81
2023-04-18T07:44:58.894Z,101061.81
2023-04-18T07:47:29.930Z,101063.75
2023-04-18T07:49:58.382Z,101061.47
2023-04-18T07:52:26.005Z,101061.09
2023-04-18T07:54:53.422Z,101067.63
2023-04-18T07:57:21.114Z,101071.47
2023-04-18T07:59:53.780Z,101057.22
2023-04-18T08:02:21.743Z,101061.31
2023-04-18T08:04:50.117Z,101053.25
2023-04-18T08:07:17.891Z,101068.22
2023-04-18T08:09:45.988Z,101053.75
2023-04-18T08:12:13.549Z,101049.44
2023-04-18T08:14:41.758Z,101045.59
2023-04-18T08:17:09.308Z,101046.34
2023-04-18T08:19:36.862Z,101043.25
2023-04-18T08:22:10.359Z,101041.34
2023-04-18T08:24:38.710Z,101039.28
2023-04-18T08:27:06.575Z,101049.53
2023-04-18T08:29:34.100Z,101034.13
2023-04-18T08:32:01.694Z,101029.22
2023-04-18T08:34:29.813Z,101023.97
2023-04-18T08:36:57.294Z,101037.16
2023-04-18T08:39:25.403Z,101035.44
2023-04-18T08:42:01.768Z,101034.53
2023-04-18T08:44:29.602Z,101032.16
2023-04-18T08:46:57.729Z,101046.28
2023-04-18T08:49:25.362Z,101037.88
2023-04-18T08:51:53.190Z,101045.09
2023-04-18T08:54:22.554Z,101039.31
2023-04-18T08:57:07.455Z,101036.91
2023-04-18T08:59:37.942Z,101033.78
2023-04-18T09:02:08.947Z,101027.81
2023-04-18T09:04:49.245Z,101030.88
2023-04-18T09:07:17.530Z,101026.00
2023-04-18T09:09:50.529Z,101028.75
2023-04-18T09:12:22.532Z,101033.09
2023-04-18T09:14:57.813Z,101030.03
2023-04-18T09:17:43.593Z,101030.69
2023-04-18T09:20:12.567Z,101022.16
2023-04-18T09:22:54.522Z,101024.28
2023-04-18T09:25:44.763Z,101012.16
2023-04-18T09:28:28.061Z,101023.63
2023-04-18T09:31:09.441Z,101019.41
2023-04-18T09:33:37.991Z,101026.28
2023-04-18T09:36:27.267Z,101013.09
2023-04-18T09:38:57.019Z,101016.38
2023-04-18T09:41:24.886Z,101011.50
2023-04-18T09:44:13.554Z,101017.34
2023-04-18T09:46:46.668Z,101017.03
2023-04-18T09:49:16.938Z,101020.34
2023-04-18T09:51:46.293Z,101019.19
2023-04-18T09:54:17.389Z,101016.72
2023-04-18T09:56:47.302Z,101012.81
2023-04-18T09:59:21.461Z,101019.63
2023-04-18T10:01:49.846Z,101018.56
2023-04-18T10:04:19.185Z,101016.31
2023-04-18T10:06:47.137Z,101018.13
2023-04-18T10:09:16.098Z,101017.56
2023-04-18T10:11:44.663Z,101019.31
2023-04-18T10:14:15.935Z,101030.16
2023-04-18T10:16:49.894Z,101025.16
2023-04-18T10:19:26.212Z,101041.03
2023-04-18T10:21:57.672Z,101034.03
2023-04-18T10:24:53.623Z,101040.66
2023-04-18T10:27:49.206Z,101039.75
2023-04-18T10:30:17.556Z,101035.56
2023-04-18T10:32:48.335Z,101043.72
2023-04-18T10:35:15.988Z,101033.06
2023-04-18T10:37:59.107Z,101030.22
2023-04-18T10:40:34.280Z,101021.25
2023-04-18T10:43:02.026Z,101023.84
2023-04-18T10:45:33.569Z,101021.06
2023-04-18T10:48:29.620Z,101011.19
2023-04-18T10:51:13.348Z,101002.66
2023-04-18T10:53:48.297Z,100994.13
2023-04-18T10:56:16.120Z,100997.63
2023-04-18T10:58:49.746Z,100994.13
2023-04-18T11:01:32.476Z,100989.94
2023-04-18T11:04:01.385Z,100990.66
2023-04-18T11:06:31.286Z,100998.97
2023-04-18T11:09:12.515Z,100996.88
2023-04-18T11:11:41.615Z,100993.50
2023-04-18T11:14:09.400Z,100992.88
2023-04-18T11:16:37.492Z,101007.34
2023-04-18T11:19:21.914Z,101000.06
2023-04-18T11:21:51.321Z,100997.50
2023-04-18T11:24:23.726Z,101001.28
2023-04-18T11:26:55.821Z,100999.25
2023-04-18T11:29:23.774Z,100996.66
2023-04-18T11:31:55.848Z,101002.75
2023-04-18T11:34:31.907Z,100998.63
2023-04-18T11:37:00.320Z,100994.56
2023-04-18T11:39:28.007Z,100997.84
2023-04-18T11:41:57.214Z,101005.19
2023-04-18T11:44:25.216Z,100993.84
2023-04-18T11:46:53.663Z,100990.75
2023-04-18T11:49:28.916Z,100994.56
2023-04-18T11:51:56.892Z,100990.94
2023-04-18T11:54:44.465Z,100976.00
2023-04-18T11:57:23.000Z,100978.91
2023-04-18T11:59:52.026Z,100980.13
2023-04-18T12:02:21.157Z,100977.59
2023-04-18T12:04:57.387Z,100981.25
2023-04-18T12:07:40.401Z,100982.66
2023-04-18T12:10:08.252Z,100982.31
2023-04-18T12:12:36.728Z,100973.69
2023-04-18T12:15:09.445Z,100969.31
2023-04-18T12:17:38.301Z,100964.81
2023-04-18T12:20:10.129Z,100956.69
2023-04-18T12:22:43.922Z,100958.34
2023-04-18T12:25:27.381Z,100952.78
2023-04-18T12:28:00.679Z,100951.81
2023-04-18T12:30:31.095Z,100941.81
2023-04-18T12:33:04.107Z,100944.56
2023-04-18T12:35:32.440Z,100940.38
2023-04-18T12:38:01.316Z,100945.88
2023-04-18T12:40:30.426Z,100937.75
2023-04-18T12:42:58.059Z,100939.47
2023-04-18T12:45:25.823Z,100941.78
2023-04-18T12:47:53.814Z,100944.03
2023-04-18T12:50:25.666Z,100934.69
2023-04-18T12:52:54.897Z,100938.00
2023-04-18T12:55:22.960Z,100938.97
2023-04-18T12:57:54.949Z,100932.66
2023-04-18T13:00:24.417Z,100938.63
2023-04-18T13:02:52.899Z,100942.13
2023-04-18T13:05:22.474Z,100947.94
2023-04-18T13:07:56.305Z,100941.16
2023-04-18T13:10:29.645Z,100939.34
2023-04-18T13:12:57.197Z,100936.81
2023-04-18T13:15:24.881Z,100937.63
2023-04-18T13:17:52.464Z,100936.56
2023-04-18T13:20:20.029Z,100933.19
2023-04-18T13:22:47.522Z,100931.22
2023-04-18T13:25:14.956Z,100931.69
2023-04-18T13:27:42.794Z,100922.44
2023-04-18T13:30:11.324Z,100933.34
2023-04-18T13:32:40.522Z,100928.59
2023-04-18T13:35:09.706Z,100924.25
2023-04-18T13:37:38.622Z,100940.16
2023-04-18T13:40:07.073Z,100938.22
2023-04-18T13:42:36.488Z,100934.59
2023-04-18T13:45:04.339Z,100936.09
2023-04-18T13:47:32.867Z,100931.03
2023-04-18T13:50:00.398Z,100935.22
2023-04-18T13:52:27.879Z,100934.72
2023-04-18T13:54:55.703Z,100931.59
2023-04-18T13:57:23.469Z,100926.03
2023-04-18T13:59:50.979Z,100939.91
2023-04-18T14:02:18.503Z,100930.41
2023-04-18T14:04:46.634Z,100923.69
2023-04-18T14:07:14.223Z,100936.75
2023-04-18T14:09:41.634Z,100929.59
2023-04-18T14:12:09.169Z,100936.75
2023-04-18T14:14:37.236Z,100936.41
2023-04-18T14:17:04.924Z,100933.03
2023-04-18T14:19:32.397Z,100934.09
2023-04-18T14:21:59.874Z,100938.19
2023-04-18T14:24:27.365Z,100924.72
2023-04-18T14:26:54.935Z,100920.78
2023-04-18T14:29:22.560Z,100917.16
2023-04-18T14:31:50.363Z,100921.00
2023-04-18T14:34:18.058Z,100916.22
2023-04-18T14:36:45.663Z,100915.63
2023-04-18T14:39:13.373Z,100914.72
2023-04-18T14:41:41.114Z,100913.34
2023-04-18T14:44:08.561Z,100912.56
2023-04-18T14:46:36.555Z,100913.63
2023-04-18T14:49:04.094Z,100905.16
2023-04-18T14:51:32.230Z,100904.00
2023-04-18T14:53:59.897Z,100910.47
2023-04-18T14:56:27.400Z,100908.44
2023-04-18T14:58:54.960Z,100908.81
2023-04-18T15:01:22.606Z,100896.00
2023-04-18T15:03:51.418Z,100892.81
2023-04-18T15:06:19.121Z,100899.78
2023-04-18T15:08:47.240Z,100893.97
2023-04-18T15:11:14.906Z,100884.84
2023-04-18T15:13:42.672Z,100897.81
2023-04-18T15:16:11.342Z,100897.47
2023-04-18T15:18:39.004Z,100896.94
2023-04-18T15:21:06.511Z,100898.06
2023-04-18T15:23:34.233Z,100902.97
2023-04-18T15:26:01.779Z,100901.00
2023-04-18T15:28:29.588Z,100907.69
2023-04-18T15:30:57.100Z,100906.84
2023-04-18T15:33:25.277Z,100903.44
2023-04-18T15:35:52.784Z,100907.31
2023-04-18T15:38:20.341Z,100905.25
2023-04-18T15:40:47.949Z,100902.81
2023-04-18T15:43:17.301Z,100905.78
2023-04-18T15:45:45.031Z,100905.59
2023-04-18T15:48:13.257Z,100897.19
2023-04-18T15:50:42.518Z,100907.00
2023-04-18T15:53:10.177Z,100900.81
2023-04-18T15:55:37.986Z,100902.41
2023-04-18T15:58:06.615Z,100897.31
2023-04-18T16:00:34.273Z,100895.69
2023-04-18T16:03:01.951Z,100896.09
2023-04-18T16:05:30.862Z,100899.75
2023-04-18T16:07:59.497Z,100899.00
2023-04-18T16:10:27.010Z,100891.00
2023-04-18T16:12:54.749Z,100894.72
2023-04-18T16:15:22.159Z,100899.97
2023-04-18T16:17:49.674Z,100892.50
2023-04-18T16:20:17.266Z,100896.34
2023-04-18T16:22:44.846Z,100898.47
2023-04-18T16:25:12.574Z,100896.75
2023-04-18T16:27:42.647Z,100902.72
2023-04-18T16:30:10.375Z,100899.09
2023-04-18T16:32:39.020Z,100899.84
2023-04-18T16:35:10.235Z,100894.81
2023-04-18T16:37:38.690Z,100897.59
2023-04-18T16:40:07.631Z,100898.09
2023-04-18T16:42:35.839Z,100895.66
2023-04-18T16:45:04.143Z,100901.19
2023-04-18T16:47:32.475Z,100907.34
2023-04-18T16:50:00.050Z,100908.13
2023-04-18T16:52:27.665Z,100911.59
2023-04-18T16:54:55.101Z,100910.00
2023-04-18T16:57:22.715Z,100912.22
2023-04-18T16:59:50.395Z,100917.78
2023-04-18T17:02:17.991Z,100920.72
2023-04-18T17:04:46.130Z,100920.16
2023-04-18T17:07:13.663Z,100920.25
2023-04-18T17:09:41.690Z,100916.44
2023-04-18T17:12:09.383Z,100929.19
2023-04-18T17:14:37.361Z,100921.22
2023-04-18T17:17:04.866Z,100914.59
2023-04-18T17:19:32.598Z,100914.03
2023-04-18T17:22:00.393Z,100915.50
2023-04-18T17:24:27.800Z,100931.66
2023-04-18T17:26:57.719Z,100921.31
2023-04-18T17:29:26.599Z,100928.63
2023-04-18T17:31:54.265Z,100922.91
2023-04-18T17:34:21.946Z,100921.09
2023-04-18T17:36:49.628Z,100914.69
2023-04-18T17:39:17.713Z,100923.81
2023-04-18T17:41:45.295Z,100910.06
2023-04-18T17:44:12.756Z,100908.19
2023-04-18T17:46:40.369Z,100906.28
2023-04-18T17:49:07.857Z,100908.19
2023-04-18T17:51:35.340Z,100904.56
2023-04-18T17:54:03.039Z,100906.03
2023-04-18T17:56:31.597Z,100901.84
2023-04-18T17:58:59.059Z,100905.75
2023-04-18T18:01:28.824Z,100905.09
2023-04-18T18:03:57.029Z,100899.13
2023-04-18T18:06:24.552Z,100901.03
2023-04-18T18:08:52.241Z,100894.09
2023-04-18T18:11:19.815Z,100888.69
2023-04-18T18:13:47.384Z,100899.31
2023-04-18T18:16:14.982Z,100888.03
2023-04-18T18:18:42.689Z,100884.63
2023-04-18T18:21:11.504Z,100876.94
2023-04-18T18:23:39.056Z,100883.78
2023-04-18T18:26:07.073Z,100882.25
2023-04-18T18:28:34.758Z,100873.63
2023-04-18T18:31:02.644Z,100873.81
2023-04-18T18:33:31.547Z,100867.53
2023-04-18T18:35:59.772Z,100869.72
2023-04-18T18:38:27.292Z,100868.13
2023-04-18T18:40:54.790Z,100862.19
2023-04-18T18:43:26.286Z,100863.03
2023-04-18T18:45:53.863Z,100855.34
2023-04-18T18:48:21.665Z,100855.56
2023-04-18T18:50:49.124Z,100858.22
2023-04-18T18:53:17.968Z,100853.81
2023-04-18T18:55:45.742Z,100852.97
2023-04-18T18:58:13.259Z,100852.13
2023-04-18T19:00:40.758Z,100840.47
2023-04-18T19:03:08.451Z,100836.41
2023-04-18T19:05:36.549Z,100837.13
2023-04-18T19:08:05.886Z,100839.44
2023-04-18T19:10:33.561Z,100841.00
2023-04-18T19:13:01.073Z,100833.78
2023-04-18T19:15:28.669Z,100832.88
2023-04-18T19:17:56.612Z,100836.56
2023-04-18T19:20:24.307Z,100832.09
2023-04-18T19:22:51.868Z,100838.25
2023-04-18T19:25:19.353Z,100844.81
2023-04-18T19:27:46.917Z,100845.00
2023-04-18T19:30:14.490Z,100844.41
2023-04-18T19:32:42.392Z,100846.22
2023-04-18T19:35:13.186Z,100837.22
2023-04-18T19:37:40.794Z,100841.00
2023-04-18T19:40:08.791Z,100847.84
2023-04-18T19:42:36.388Z,100846.31
2023-04-18T19:45:05.219Z,100831.63
2023-04-18T19:47:34.042Z,100827.47
2023-04-18T19:50:01.650Z,100823.06
2023-04-18T19:52:29.500Z,100829.53
2023-04-18T19:54:56.952Z,100827.16
2023-04-18T19:57:26.001Z,100829.78
2023-04-18T19:59:53.467Z,100829.22
2023-04-18T20:02:21.061Z,100827.13
2023-04-18T20:04:48.762Z,100825.22
2023-04-18T20:07:16.361Z,100819.16
2023-04-18T20:09:43.849Z,100826.72
2023-04-18T20:12:11.534Z,100821.22
2023-04-18T20:14:39.018Z,100819.53
2023-04-18T20:17:06.852Z,100815.16
2023-04-18T20:19:34.305Z,100814.16
2023-04-18T20:22:02.130Z,100821.72
2023-04-18T20:24:31.801Z,100814.00
2023-04-18T20:26:59.759Z,100818.25
2023-04-18T20:29:28.080Z,100809.94
2023-04-18T20:31:55.898Z,100817.59
2023-04-18T20:34:23.647Z,100810.47
2023-04-18T20:36:52.554Z,100815.84
2023-04-18T20:39:20.218Z,100814.31
2023-04-18T20:41:51.340Z,100814.38
2023-04-18T20:44:22.287Z,100808.03
2023-04-18T20:46:49.936Z,100804.47
2023-04-18T20:49:17.603Z,100807.91
2023-04-18T20:51:45.503Z,100810.09
2023-04-18T20:54:13.407Z,100805.75
2023-04-18T20:56:41.155Z,100802.75
2023-04-18T20:59:08.753Z,100808.06
2023-04-18T21:01:37.155Z,100810.91
2023-04-18T21:04:05.102Z,100809.53
2023-04-18T21:06:32.937Z,100804.72
2023-04-18T21:09:00.521Z,100803.44
2023-04-18T21:11:28.207Z,100800.28
2023-04-18T21:13:55.639Z,100796.22
2023-04-18T21:16:24.186Z,100789.13
2023-04-18T21:18:53.157Z,100803.22
2023-04-18T21:21:20.717Z,100785.28
2023-04-18T21:23:48.117Z,100787.25
2023-04-18T21:26:15.890Z,100778.38
2023-04-18T21:29:00.790Z,100776.13
2023-04-18T21:31:30.727Z,100778.44
2023-04-18T21:34:00.497Z,100781.25
2023-04-18T21:36:29.534Z,100773.03
2023-04-18T21:38:58.595Z,100768.25
2023-04-18T21:41:26.305Z,100766.38
2023-04-18T21:43:53.870Z,100768.84
2023-04-18T21:46:21.509Z,100763.63
2023-04-18T21:48:49.139Z,100763.63
2023-04-18T21:51:17.452Z,100756.91
2023-04-18T21:53:44.990Z,100767.38
2023-04-18T21:56:12.683Z,100762.78
2023-04-18T21:58:40.235Z,100762.09
2023-04-18T22:01:07.813Z,100750.16
2023-04-18T22:03:36.395Z,100750.00
2023-04-18T22:06:04.535Z,100747.00
2023-04-18T22:08:32.529Z,100738.97
2023-04-18T22:11:00.382Z,100747.00
2023-04-18T22:13:30.163Z,100743.34
2023-04-18T22:15:58.385Z,100732.16
2023-04-18T22:18:25.993Z,100727.22
2023-04-18T22:20:53.894Z,100730.34
2023-04-18T22:23:21.433Z,100737.53
2023-04-18T22:25:48.998Z,100735.66
2023-04-18T22:28:16.432Z,100739.16
2023-04-18T22:30:43.949Z,100728.31
2023-04-18T22:33:11.448Z,100730.38
2023-04-18T22:35:38.863Z,100740.19
2023-04-18T22:38:06.562Z,100727.66
2023-04-18T22:40:34.115Z,100731.59
2023-04-18T22:43:01.700Z,100732.69
2023-04-18T22:45:29.237Z,100728.16
2023-04-18T22:47:57.087Z,100730.66
2023-04-18T22:50:24.574Z,100721.00
2023-04-18T22:52:52.258Z,100712.28
2023-04-18T22:55:20.262Z,100710.44
2023-04-18T22:57:47.668Z,100706.31
2023-04-18T23:00:15.446Z,100695.75
2023-04-18T23:02:43.076Z,100695.22
2023-04-18T23:05:11.627Z,100701.47
2023-04-18T23:07:39.187Z,100696.94
2023-04-18T23:10:07.370Z,100700.53
2023-04-18T23:12:35.455Z,100698.31
2023-04-18T23:15:03.230Z,100689.25
2023-04-18T23:17:30.962Z,100689.50
2023-04-18T23:19:58.443Z,100691.13
2023-04-18T23:22:25.999Z,100687.81
2023-04-18T23:24:53.462Z,100687.47
2023-04-18T23:27:21.025Z,100689.25
2023-04-18T23:29:51.615Z,100676.78
2023-04-18T23:32:19.182Z,100674.91
2023-04-18T23:34:46.909Z,100683.53
2023-04-18T23:37:14.339Z,100682.69
2023-04-18T23:39:41.763Z,100676.78
2023-04-18T23:42:09.596Z,100676.88
2023-04-18T23:44:37.292Z,100685.72
2023-04-18T23:47:04.838Z,100682.09
2023-04-18T23:49:32.554Z,100690.03
2023-04-18T23:52:00.264Z,100677.81
2023-04-18T23:54:27.733Z,100678.75
2023-04-18T23:56:55.140Z,100682.56
2023-04-18T23:59:22.759Z,100676.53
